Time;durP1;ratioP1;P1;durP2;ratioP2;P2;SDS_P1;SDS_P2;PMS_P1;PMS_P2;Temp;Humidity;BMP_temperature;BMP_pressure;BME280_temperature;BME280_humidity;BME280_pressure;Samples;Min_cycle;Max_cycle;Signal;HPM_P1;HPM_P2
2022/03/28 00:00:47;;;;;;;18.05;8.23;;;9.10;98.90;;;;;;4937845;29;20107;-84
2022/03/28 00:03:13;;;;;;;18.15;8.07;;;9.10;99.90;;;;;;4941369;29;20051;-84
2022/03/28 00:05:39;;;;;;;22.65;8.43;;;9.10;99.90;;;;;;4939996;29;20016;-84
2022/03/28 00:08:05;;;;;;;20.67;8.18;;;9.10;99.90;;;;;;4936448;29;20020;-85
2022/03/28 00:10:33;;;;;;;18.15;7.68;;;9.10;99.90;;;;;;4939066;29;20097;-85
2022/03/28 00:12:59;;;;;;;17.85;7.32;;;9.10;99.90;;;;;;4939192;29;20016;-84
2022/03/28 00:15:25;;;;;;;16.98;8.23;;;9.00;99.90;;;;;;4933735;29;20072;-85
2022/03/28 00:17:51;;;;;;;20.05;8.82;;;9.00;99.90;;;;;;4941256;29;20068;-86
2022/03/28 00:20:17;;;;;;;35.55;8.70;;;9.00;99.90;;;;;;4941497;29;20047;-85
2022/03/28 00:22:43;;;;;;;17.58;7.40;;;8.90;99.90;;;;;;4925544;29;20039;-86
2022/03/28 00:25:10;;;;;;;14.55;7.38;;;8.90;99.90;;;;;;4941792;29;20016;-86
2022/03/28 00:27:37;;;;;;;16.58;7.30;;;8.80;99.90;;;;;;4931361;29;20031;-84
2022/03/28 00:30:05;;;;;;;13.77;6.90;;;8.80;99.90;;;;;;4927750;29;20066;-85
2022/03/28 00:32:32;;;;;;;16.08;6.38;;;8.80;99.90;;;;;;4926181;29;20036;-84
2022/03/28 00:34:58;;;;;;;15.50;7.72;;;8.70;99.90;;;;;;4929286;29;20028;-83
2022/03/28 00:37:24;;;;;;;19.35;7.55;;;8.70;99.90;;;;;;4935932;29;20036;-84
2022/03/28 00:39:50;;;;;;;22.08;8.25;;;8.60;99.90;;;;;;4928751;29;20047;-84
2022/03/28 00:42:16;;;;;;;12.23;6.95;;;8.60;99.90;;;;;;4924780;29;20047;-87
2022/03/28 00:44:41;;;;;;;12.88;7.18;;;8.60;99.90;;;;;;4924870;29;20039;-84
2022/03/28 00:47:07;;;;;;;16.25;6.28;;;8.50;99.90;;;;;;4924949;29;20062;-84
2022/03/28 00:49:34;;;;;;;16.13;6.22;;;8.40;99.90;;;;;;4925475;29;20119;-84
2022/03/28 00:52:00;;;;;;;15.52;6.35;;;8.40;99.90;;;;;;4926351;29;20028;-82
2022/03/28 00:54:26;;;;;;;15.07;6.20;;;8.30;99.90;;;;;;4925040;29;20032;-84
2022/03/28 00:56:52;;;;;;;13.30;6.07;;;8.30;99.90;;;;;;4935623;29;20103;-86
2022/03/28 00:59:18;;;;;;;16.35;6.68;;;8.20;99.90;;;;;;4928174;29;20040;-84
2022/03/28 01:01:46;;;;;;;15.90;7.47;;;8.20;99.90;;;;;;4928247;29;20523;-84
2022/03/28 01:04:12;;;;;;;18.48;7.80;;;8.20;99.90;;;;;;4931762;29;20036;-84
2022/03/28 01:06:39;;;;;;;18.13;8.32;;;8.30;99.90;;;;;;4934618;29;20071;-83
2022/03/28 01:09:05;;;;;;;13.85;7.55;;;8.20;99.90;;;;;;4937003;29;20043;-86
2022/03/28 01:11:33;;;;;;;20.77;8.73;;;8.20;99.90;;;;;;4939600;29;20028;-85
2022/03/28 01:13:59;;;;;;;16.38;7.70;;;8.10;99.90;;;;;;4942046;29;20032;-84
2022/03/28 01:16:29;;;;;;;16.80;7.75;;;8.10;99.90;;;;;;4942564;29;20024;-84
2022/03/28 01:18:55;;;;;;;13.52;7.18;;;8.00;99.90;;;;;;4943417;29;20088;-84
2022/03/28 01:21:21;;;;;;;11.40;6.47;;;8.00;99.90;;;;;;4942981;29;20032;-83
2022/03/28 01:23:47;;;;;;;14.38;7.63;;;8.00;99.90;;;;;;4938456;29;20037;-84
2022/03/28 01:26:15;;;;;;;15.38;7.32;;;7.90;99.90;;;;;;4936412;29;20032;-84
2022/03/28 01:28:41;;;;;;;23.65;8.25;;;7.80;99.90;;;;;;4936615;29;20032;-84
2022/03/28 01:31:07;;;;;;;16.95;6.97;;;7.80;99.90;;;;;;4935384;29;20035;-82
2022/03/28 01:33:37;;;;;;;21.98;7.40;;;7.80;99.90;;;;;;4942927;29;20083;-84
2022/03/28 01:36:03;;;;;;;16.98;7.20;;;7.80;99.90;;;;;;4935643;29;20044;-83
2022/03/28 01:38:28;;;;;;;16.70;6.75;;;7.70;99.90;;;;;;4934290;29;20036;-85
2022/03/28 01:40:54;;;;;;;18.00;7.07;;;7.60;99.90;;;;;;4937807;29;20039;-85
2022/03/28 01:43:21;;;;;;;13.70;5.88;;;7.60;99.90;;;;;;4940310;29;20065;-83
2022/03/28 01:45:47;;;;;;;12.32;6.20;;;7.50;99.90;;;;;;4939696;29;20036;-82
2022/03/28 01:48:14;;;;;;;14.20;6.03;;;7.50;99.90;;;;;;4942389;29;20024;-83
2022/03/28 01:50:40;;;;;;;10.40;4.93;;;7.50;99.90;;;;;;4938318;29;20024;-83
2022/03/28 01:53:06;;;;;;;7.70;4.07;;;7.40;99.90;;;;;;4938274;29;20047;-83
2022/03/28 01:55:32;;;;;;;15.05;4.38;;;7.40;98.20;;;;;;4942507;29;20022;-83
2022/03/28 01:57:58;;;;;;;9.35;4.10;;;7.40;95.70;;;;;;4942380;29;20012;-82
2022/03/28 02:00:28;;;;;;;8.60;4.32;;;7.40;95.10;;;;;;4943966;29;20028;-83
2022/03/28 02:02:54;;;;;;;9.73;4.10;;;7.30;94.10;;;;;;4944048;29;20020;-85
2022/03/28 02:05:20;;;;;;;8.50;3.97;;;7.30;93.70;;;;;;4940849;29;20534;-84
2022/03/28 02:07:47;;;;;;;9.77;4.80;;;7.20;93.60;;;;;;4942433;29;20043;-85
2022/03/28 02:10:16;;;;;;;14.13;4.90;;;7.20;93.70;;;;;;4941690;29;20035;-82
2022/03/28 02:12:43;;;;;;;10.25;4.22;;;7.10;94.00;;;;;;4941131;29;20036;-84
2022/03/28 02:15:10;;;;;;;8.70;4.35;;;7.10;94.60;;;;;;4940853;29;20036;-85
2022/03/28 02:17:38;;;;;;;11.75;5.15;;;7.10;94.60;;;;;;4941110;29;20038;-85
2022/03/28 02:20:05;;;;;;;11.57;4.65;;;7.10;95.00;;;;;;4940424;29;20012;-85
2022/03/28 02:22:32;;;;;;;11.77;4.40;;;7.10;95.10;;;;;;4943347;29;20052;-86
2022/03/28 02:24:58;;;;;;;9.35;4.93;;;7.00;95.00;;;;;;4924436;29;20028;-84
2022/03/28 02:27:24;;;;;;;8.57;4.68;;;7.00;95.30;;;;;;4938092;29;20048;-82
2022/03/28 02:29:50;;;;;;;7.68;4.15;;;7.00;95.90;;;;;;4936714;29;20024;-84
2022/03/28 02:32:16;;;;;;;16.02;5.13;;;7.00;96.20;;;;;;4931508;29;20099;-85
2022/03/28 02:34:41;;;;;;;20.58;5.55;;;7.00;95.90;;;;;;4927301;29;20028;-83
2022/03/28 02:37:08;;;;;;;12.23;4.80;;;7.00;96.80;;;;;;4930741;29;20116;-84
2022/03/28 02:39:33;;;;;;;12.30;5.65;;;7.00;96.60;;;;;;4927617;29;20024;-84
2022/03/28 02:41:59;;;;;;;11.75;5.55;;;6.90;97.20;;;;;;4929734;29;20043;-84
2022/03/28 02:44:25;;;;;;;13.00;4.95;;;6.90;97.80;;;;;;4938133;29;20032;-84
2022/03/28 02:46:51;;;;;;;14.43;5.95;;;6.90;98.30;;;;;;4933104;29;20039;-84
2022/03/28 02:49:19;;;;;;;14.32;5.57;;;6.90;98.90;;;;;;4931011;29;20028;-84
2022/03/28 02:51:45;;;;;;;15.27;5.68;;;6.90;99.00;;;;;;4933086;29;20024;-85
2022/03/28 02:54:12;;;;;;;14.35;5.53;;;6.90;99.50;;;;;;4930973;29;20025;-84
2022/03/28 02:56:37;;;;;;;12.07;5.28;;;6.80;99.90;;;;;;4933157;29;20035;-83
2022/03/28 02:59:03;;;;;;;12.70;5.43;;;6.80;99.90;;;;;;4939011;29;20412;-82
2022/03/28 03:01:29;;;;;;;12.25;5.55;;;6.70;99.90;;;;;;4927903;29;20021;-84
2022/03/28 03:03:55;;;;;;;16.88;6.50;;;6.70;99.90;;;;;;4928648;29;20262;-85
2022/03/28 03:06:21;;;;;;;13.40;6.10;;;6.70;99.90;;;;;;4927366;29;20081;-84
2022/03/28 03:08:47;;;;;;;17.67;6.10;;;6.60;99.90;;;;;;4928588;29;20031;-84
2022/03/28 03:11:13;;;;;;;14.30;5.60;;;6.60;99.90;;;;;;4926060;29;20036;-85
2022/03/28 03:13:39;;;;;;;15.48;6.10;;;6.60;99.90;;;;;;4928022;29;20028;-83
2022/03/28 03:16:05;;;;;;;14.38;6.30;;;6.60;99.90;;;;;;4926484;29;20476;-83
2022/03/28 03:18:31;;;;;;;14.73;5.80;;;6.60;99.90;;;;;;4929431;29;20020;-85
2022/03/28 03:20:59;;;;;;;12.48;6.40;;;6.60;99.90;;;;;;4938672;29;20052;-84
2022/03/28 03:23:28;;;;;;;13.10;6.13;;;6.60;99.90;;;;;;4928792;29;20037;-82
2022/03/28 03:25:54;;;;;;;11.15;6.22;;;6.60;99.90;;;;;;4926610;29;20084;-84
2022/03/28 03:28:20;;;;;;;12.00;6.10;;;6.60;99.90;;;;;;4925204;29;20048;-83
2022/03/28 03:30:48;;;;;;;17.83;7.35;;;6.60;99.90;;;;;;4926465;29;20036;-85
2022/03/28 03:33:14;;;;;;;14.27;6.18;;;6.50;99.90;;;;;;4937792;23;20052;-82
2022/03/28 03:35:40;;;;;;;14.15;6.53;;;6.50;99.90;;;;;;4906800;29;20040;-82
2022/03/28 03:38:06;;;;;;;13.52;6.47;;;6.40;99.90;;;;;;4906559;29;20480;-80
2022/03/28 03:40:32;;;;;;;15.10;5.90;;;6.40;99.90;;;;;;4905651;29;20044;-80
2022/03/28 03:42:58;;;;;;;15.02;6.55;;;6.40;99.90;;;;;;4887937;29;20029;-82
2022/03/28 03:45:24;;;;;;;15.55;6.63;;;6.30;99.90;;;;;;4889790;29;20057;-82
2022/03/28 03:47:50;;;;;;;19.92;7.18;;;6.30;99.90;;;;;;4888545;29;20040;-82
2022/03/28 03:50:16;;;;;;;19.95;7.30;;;6.30;99.90;;;;;;4904612;29;20041;-81
2022/03/28 03:52:42;;;;;;;16.52;6.05;;;6.30;99.90;;;;;;4904518;29;20425;-82
2022/03/28 03:55:09;;;;;;;14.63;6.95;;;6.30;99.90;;;;;;4908673;29;20049;-81
2022/03/28 03:57:34;;;;;;;15.38;6.88;;;6.30;99.90;;;;;;4908535;29;20036;-82
2022/03/28 04:00:00;;;;;;;18.52;7.28;;;6.30;99.90;;;;;;4893794;29;20422;-81
2022/03/28 04:02:26;;;;;;;16.77;6.90;;;6.30;99.90;;;;;;4909479;29;20061;-83
2022/03/28 04:04:52;;;;;;;14.35;6.78;;;6.20;99.90;;;;;;4912916;29;20048;-82
2022/03/28 04:07:18;;;;;;;14.60;6.53;;;6.20;99.90;;;;;;4899788;29;20045;-80
2022/03/28 04:09:43;;;;;;;19.50;7.65;;;6.20;99.90;;;;;;4918764;29;20052;-80
2022/03/28 04:12:11;;;;;;;19.67;7.00;;;6.20;99.90;;;;;;4897839;29;20044;-82
2022/03/28 04:14:37;;;;;;;16.25;6.85;;;6.10;99.90;;;;;;4890858;29;20041;-81
2022/03/28 04:17:03;;;;;;;14.50;7.57;;;6.20;99.90;;;;;;4892823;29;20029;-82
2022/03/28 04:19:29;;;;;;;16.05;7.60;;;6.20;99.90;;;;;;4901657;29;20036;-83
2022/03/28 04:21:55;;;;;;;16.80;7.43;;;6.10;99.90;;;;;;4904410;29;20029;-83
2022/03/28 04:24:20;;;;;;;15.63;6.45;;;6.10;99.90;;;;;;4888368;29;20044;-83
2022/03/28 04:26:46;;;;;;;15.13;7.03;;;6.00;99.90;;;;;;4905409;29;20095;-82
2022/03/28 04:29:13;;;;;;;17.52;6.93;;;6.10;99.90;;;;;;4891855;29;20084;-81
2022/03/28 04:31:40;;;;;;;25.83;7.57;;;6.10;99.90;;;;;;4893506;29;20035;-82
2022/03/28 04:34:09;;;;;;;14.43;6.53;;;6.10;99.90;;;;;;4897720;29;20477;-80
2022/03/28 04:36:37;;;;;;;17.58;6.30;;;6.10;99.90;;;;;;4917335;29;20037;-80
2022/03/28 04:39:04;;;;;;;15.70;6.30;;;6.10;99.90;;;;;;4918101;29;20025;-81
2022/03/28 04:41:30;;;;;;;15.60;6.65;;;6.10;99.90;;;;;;4902902;29;20009;-80
2022/03/28 04:43:57;;;;;;;14.63;6.13;;;6.10;99.90;;;;;;4917958;29;20029;-80
2022/03/28 04:46:23;;;;;;;14.38;5.97;;;6.10;99.90;;;;;;4903209;29;20052;-79
2022/03/28 04:48:49;;;;;;;20.15;6.05;;;6.10;99.90;;;;;;4902834;29;20033;-81
2022/03/28 04:51:15;;;;;;;16.83;6.55;;;6.10;99.90;;;;;;4917284;29;20021;-79
2022/03/28 04:53:41;;;;;;;22.85;6.40;;;6.10;99.90;;;;;;4902700;29;20021;-81
2022/03/28 04:56:07;;;;;;;16.15;6.90;;;6.10;99.90;;;;;;4917498;29;20081;-81
2022/03/28 04:58:32;;;;;;;12.70;6.68;;;6.00;99.90;;;;;;4896802;29;20061;-83
2022/03/28 05:00:58;;;;;;;15.50;6.68;;;6.00;99.90;;;;;;4892634;29;20029;-83
2022/03/28 05:03:24;;;;;;;15.63;6.57;;;6.00;99.90;;;;;;4906819;29;20591;-82
2022/03/28 05:05:50;;;;;;;20.27;7.32;;;6.00;99.90;;;;;;4906909;29;20025;-82
2022/03/28 05:08:16;;;;;;;20.90;7.32;;;6.00;99.90;;;;;;4894421;29;20066;-82
2022/03/28 05:10:41;;;;;;;23.05;7.63;;;6.10;99.90;;;;;;4895147;29;20044;-82
2022/03/28 05:13:07;;;;;;;19.30;7.72;;;6.10;99.90;;;;;;4896494;29;20044;-82
2022/03/28 05:15:33;;;;;;;26.75;7.28;;;6.10;99.90;;;;;;4910553;29;20025;-81
2022/03/28 05:18:01;;;;;;;19.63;8.90;;;6.20;99.90;;;;;;4912808;29;20033;-83
2022/03/28 05:20:27;;;;;;;16.25;7.97;;;6.20;99.90;;;;;;4900703;29;20037;-83
2022/03/28 05:22:53;;;;;;;12.80;7.03;;;6.30;99.90;;;;;;4902494;29;20029;-81
2022/03/28 05:25:19;;;;;;;15.95;7.80;;;6.30;99.90;;;;;;4902558;29;20025;-80
2022/03/28 05:27:46;;;;;;;21.02;8.63;;;6.30;99.90;;;;;;4917364;29;20024;-81
2022/03/28 05:30:12;;;;;;;20.23;8.23;;;6.30;99.90;;;;;;4902507;29;20032;-80
2022/03/28 05:32:38;;;;;;;25.33;8.40;;;6.30;99.90;;;;;;4917017;29;20066;-82
2022/03/28 05:35:06;;;;;;;25.80;8.40;;;6.40;99.90;;;;;;4902019;29;20017;-81
2022/03/28 05:37:32;;;;;;;25.75;8.80;;;6.40;99.90;;;;;;4902172;29;20037;-81
2022/03/28 05:39:58;;;;;;;20.27;8.45;;;6.50;99.90;;;;;;4901979;29;20033;-82
2022/03/28 05:42:24;;;;;;;17.77;8.57;;;6.60;99.90;;;;;;4912245;29;20389;-83
2022/03/28 05:44:50;;;;;;;23.63;8.10;;;6.60;99.90;;;;;;4903932;29;20112;-83
2022/03/28 05:47:16;;;;;;;20.70;7.85;;;6.70;99.90;;;;;;4890788;29;20033;-83
2022/03/28 05:49:41;;;;;;;19.23;8.63;;;6.80;99.90;;;;;;4892932;29;20049;-84
2022/03/28 05:52:08;;;;;;;19.90;8.38;;;6.90;99.90;;;;;;4906242;29;20308;-82
2022/03/28 05:54:35;;;;;;;22.80;8.13;;;7.00;99.90;;;;;;4891698;29;20021;-80
2022/03/28 05:57:01;;;;;;;29.13;8.07;;;7.10;99.90;;;;;;4913669;29;20033;-81
2022/03/28 05:59:27;;;;;;;17.38;6.95;;;7.20;99.90;;;;;;4912707;29;20128;-79
2022/03/28 06:01:53;;;;;;;19.50;8.25;;;7.30;99.90;;;;;;4914443;29;20037;-80
2022/03/28 06:04:19;;;;;;;21.83;7.70;;;7.40;99.90;;;;;;4906708;29;20039;-81
2022/03/28 06:06:45;;;;;;;22.80;6.70;;;7.40;99.90;;;;;;4888424;29;20037;-79
2022/03/28 06:09:10;;;;;;;25.38;7.40;;;7.30;99.90;;;;;;4902147;29;20018;-79
2022/03/28 06:11:37;;;;;;;17.17;7.35;;;7.30;99.90;;;;;;4898342;29;20037;-80
2022/03/28 06:14:04;;;;;;;17.35;7.50;;;7.30;99.90;;;;;;4895866;29;20388;-79
2022/03/28 06:16:30;;;;;;;23.92;7.22;;;7.40;99.90;;;;;;4898088;29;20085;-80
2022/03/28 06:18:56;;;;;;;22.25;7.30;;;7.50;99.90;;;;;;4910088;29;20097;-79
2022/03/28 06:21:22;;;;;;;30.08;8.60;;;7.50;99.90;;;;;;4895394;29;20068;-80
2022/03/28 06:23:48;;;;;;;16.33;7.35;;;7.60;99.90;;;;;;4888115;29;20084;-83
2022/03/28 06:26:14;;;;;;;20.52;7.75;;;7.70;99.90;;;;;;4887927;29;20031;-82
2022/03/28 06:28:40;;;;;;;18.40;8.75;;;7.80;99.90;;;;;;4902408;29;20119;-82
2022/03/28 06:31:09;;;;;;;22.42;8.52;;;7.90;99.90;;;;;;4899188;29;20060;-83
2022/03/28 06:33:35;;;;;;;21.60;10.82;;;8.00;99.90;;;;;;4889697;29;20025;-83
2022/03/28 06:36:01;;;;;;;16.65;8.55;;;8.10;99.90;;;;;;4872560;29;20029;-82
2022/03/28 06:38:27;;;;;;;18.27;9.13;;;8.20;99.90;;;;;;4888607;29;20386;-84
2022/03/28 06:40:53;;;;;;;18.10;8.27;;;8.30;99.90;;;;;;4891562;29;20080;-82
2022/03/28 06:43:19;;;;;;;28.27;8.88;;;8.40;99.90;;;;;;4901146;29;20025;-79
2022/03/28 06:45:45;;;;;;;23.23;8.52;;;8.60;99.90;;;;;;4902328;29;20021;-83
2022/03/28 06:48:11;;;;;;;21.33;8.55;;;8.70;99.90;;;;;;4901038;29;20061;-83
2022/03/28 06:50:37;;;;;;;26.95;9.75;;;8.70;99.90;;;;;;4885196;29;20067;-83
2022/03/28 06:53:03;;;;;;;18.52;8.63;;;8.90;99.90;;;;;;4913232;29;20025;-83
2022/03/28 06:55:31;;;;;;;18.88;9.05;;;9.00;99.90;;;;;;4903210;29;20032;-86
2022/03/28 06:57:57;;;;;;;22.05;9.43;;;9.10;99.90;;;;;;4886980;29;20021;-87
2022/03/28 07:00:23;;;;;;;21.38;10.27;;;9.20;99.70;;;;;;4883060;29;20062;-85
2022/03/28 07:02:49;;;;;;;31.83;10.38;;;9.30;99.20;;;;;;4873075;29;20381;-82
2022/03/28 07:05:15;;;;;;;21.38;10.75;;;9.40;99.00;;;;;;4896183;29;20052;-86
2022/03/28 07:07:44;;;;;;;23.05;9.90;;;9.60;98.80;;;;;;4895862;29;20032;-85
2022/03/28 07:10:11;;;;;;;24.38;9.63;;;9.70;98.40;;;;;;4891449;29;20025;-87
2022/03/28 07:12:37;;;;;;;22.63;10.15;;;9.80;97.80;;;;;;4904889;29;20037;-85
2022/03/28 07:15:05;;;;;;;23.73;10.02;;;9.80;97.70;;;;;;4912574;29;20111;-85
2022/03/28 07:17:31;;;;;;;19.20;9.68;;;9.90;97.20;;;;;;4888595;29;20124;-84
2022/03/28 07:19:57;;;;;;;24.85;9.90;;;10.00;96.90;;;;;;4891270;29;20056;-85
2022/03/28 07:22:23;;;;;;;23.52;9.50;;;10.10;96.60;;;;;;4912143;29;20025;-85
2022/03/28 07:24:49;;;;;;;23.30;10.50;;;10.30;95.30;;;;;;4898368;29;20044;-85
2022/03/28 07:27:17;;;;;;;24.98;10.30;;;10.20;95.20;;;;;;4897968;29;20029;-87
2022/03/28 07:29:43;;;;;;;21.30;9.50;;;10.30;94.40;;;;;;4903839;29;20041;-84
2022/03/28 07:32:09;;;;;;;21.23;10.65;;;10.40;94.80;;;;;;4884114;29;20056;-83
2022/03/28 07:34:38;;;;;;;20.80;10.10;;;10.60;94.10;;;;;;4883910;29;20029;-83
2022/03/28 07:37:09;;;;;;;21.38;10.52;;;10.80;93.60;;;;;;4883609;29;20028;-83
2022/03/28 07:39:37;;;;;;;27.98;10.15;;;10.90;93.70;;;;;;4883818;29;20021;-83
2022/03/28 07:42:07;;;;;;;19.48;10.13;;;11.00;92.90;;;;;;4900245;29;20040;-85
2022/03/28 07:44:36;;;;;;;27.75;10.80;;;11.10;92.60;;;;;;4885012;29;20822;-84
2022/03/28 07:47:05;;;;;;;28.38;11.82;;;11.20;92.00;;;;;;4883845;29;20048;-83
2022/03/28 07:49:34;;;;;;;21.45;9.98;;;11.20;91.60;;;;;;4898899;29;20127;-83
2022/03/28 07:52:00;;;;;;;20.55;10.13;;;11.00;91.30;;;;;;4898960;29;20029;-83
2022/03/28 07:54:26;;;;;;;29.13;11.68;;;11.10;91.50;;;;;;4883605;29;20112;-82
2022/03/28 07:56:51;;;;;;;30.70;12.10;;;11.10;91.20;;;;;;4885945;29;20029;-85
2022/03/28 07:59:17;;;;;;;28.05;11.20;;;11.00;91.00;;;;;;4887429;29;20068;-84
2022/03/28 08:01:43;;;;;;;22.73;11.43;;;11.00;91.20;;;;;;4890649;29;20081;-84
2022/03/28 08:04:09;;;;;;;30.48;11.38;;;11.20;90.90;;;;;;4904137;29;20037;-84
2022/03/28 08:06:35;;;;;;;34.28;11.57;;;11.40;90.50;;;;;;4890536;29;20033;-85
2022/03/28 08:09:00;;;;;;;38.47;13.02;;;11.80;89.40;;;;;;4885402;29;20033;-85
2022/03/28 08:11:26;;;;;;;33.92;13.35;;;11.90;88.20;;;;;;4888288;29;20025;-86
2022/03/28 08:13:53;;;;;;;37.70;13.88;;;12.00;87.30;;;;;;4905034;29;20033;-83
2022/03/28 08:16:18;;;;;;;30.88;13.93;;;12.10;87.50;;;;;;4900469;29;20032;-83
2022/03/28 08:18:44;;;;;;;33.28;13.45;;;12.10;87.00;;;;;;4887115;29;20033;-84
2022/03/28 08:21:10;;;;;;;33.00;13.82;;;12.10;86.50;;;;;;4883354;29;20025;-82
2022/03/28 08:23:36;;;;;;;31.35;13.10;;;12.30;86.50;;;;;;4895781;29;20036;-86
2022/03/28 08:26:02;;;;;;;37.38;13.18;;;12.40;85.80;;;;;;4890462;29;20035;-84
2022/03/28 08:28:28;;;;;;;29.70;13.20;;;12.40;85.40;;;;;;4893569;29;20056;-82
2022/03/28 08:30:54;;;;;;;29.27;13.10;;;12.50;85.20;;;;;;4894227;29;20021;-84
2022/03/28 08:33:19;;;;;;;27.73;13.23;;;12.60;85.10;;;;;;4894018;29;20025;-84
2022/03/28 08:35:45;;;;;;;44.75;12.85;;;12.80;83.80;;;;;;4890612;29;20025;-84
2022/03/28 08:38:11;;;;;;;33.47;12.18;;;12.80;83.80;;;;;;4889593;29;20021;-86
2022/03/28 08:40:37;;;;;;;24.70;12.93;;;12.90;83.20;;;;;;4887237;29;20025;-85
2022/03/28 08:43:04;;;;;;;29.98;12.40;;;12.90;83.80;;;;;;4906695;29;20028;-81
2022/03/28 08:45:30;;;;;;;32.83;12.15;;;13.00;83.30;;;;;;4893883;29;20071;-83
2022/03/28 08:47:56;;;;;;;27.23;12.57;;;13.20;83.20;;;;;;4904444;29;20021;-82
2022/03/28 08:50:22;;;;;;;31.88;12.63;;;13.30;83.90;;;;;;4905625;29;20572;-82
2022/03/28 08:52:48;;;;;;;23.95;12.30;;;13.30;83.50;;;;;;4895232;29;20107;-85
2022/03/28 08:55:15;;;;;;;29.17;13.10;;;13.30;82.30;;;;;;4892902;29;20109;-84
2022/03/28 08:57:41;;;;;;;35.58;14.23;;;13.30;82.20;;;;;;4888990;29;20021;-84
2022/03/28 09:00:10;;;;;;;31.50;13.27;;;13.40;83.30;;;;;;4874007;29;20029;-84
2022/03/28 09:02:47;;;;;;;35.03;12.90;;;13.50;82.00;;;;;;4892067;29;20053;-84
2022/03/28 09:05:15;;;;;;;30.52;13.48;;;13.60;82.30;;;;;;4909344;29;20043;-82
2022/03/28 09:07:41;;;;;;;36.78;12.57;;;13.60;81.90;;;;;;4898045;29;20009;-83
2022/03/28 09:10:17;;;;;;;32.13;12.80;;;13.70;80.70;;;;;;4888060;29;20078;-84
2022/03/28 09:13:01;;;;;;;35.13;12.35;;;14.00;80.40;;;;;;4886020;29;20037;-83
2022/03/28 09:15:47;;;;;;;27.35;11.75;;;14.50;79.10;;;;;;4884645;29;20041;-83
2022/03/28 09:18:32;;;;;;;26.90;12.38;;;15.30;78.40;;;;;;4888125;29;20033;-81
2022/03/28 09:21:07;;;;;;;23.65;12.55;;;16.10;75.90;;;;;;4887811;29;20029;-82
2022/03/28 09:23:35;;;;;;;;;;;17.10;75.00;;;;;;4901121;29;20048;-81
2022/03/28 09:26:23;;;;;;;32.17;12.45;;;18.60;71.20;;;;;;4894631;29;19911;-83
2022/03/28 09:29:01;;;;;;;26.13;13.75;;;20.10;67.20;;;;;;4892964;29;20066;-85
2022/03/28 09:31:43;;;;;;;27.77;15.60;;;21.30;63.80;;;;;;4891216;29;20491;-84
2022/03/28 09:34:15;;;;;;;25.05;12.98;;;22.90;60.40;;;;;;4929204;23;20104;-88
2022/03/28 09:36:56;;;;;;;28.95;13.23;;;24.60;57.10;;;;;;4916751;29;20017;-87
2022/03/28 09:39:28;;;;;;;23.73;14.93;;;25.90;53.70;;;;;;4914926;29;20043;-87
2022/03/28 09:42:04;;;;;;;24.40;13.90;;;26.40;51.70;;;;;;4928620;29;20108;-85
2022/03/28 09:44:37;;;;;;;26.40;13.98;;;26.40;51.10;;;;;;4918128;29;20033;-87
2022/03/28 09:47:13;;;;;;;30.70;15.02;;;26.30;51.10;;;;;;4920274;29;20053;-87
2022/03/28 09:49:44;;;;;;;27.67;14.60;;;26.60;50.40;;;;;;4921195;29;20045;-85
2022/03/28 09:52:21;;;;;;;26.38;15.90;;;27.20;50.00;;;;;;4931046;29;20179;-85
2022/03/28 09:54:54;;;;;;;27.50;15.88;;;26.50;50.40;;;;;;4924150;29;20036;-86
2022/03/28 09:57:26;;;;;;;29.75;15.15;;;27.00;50.40;;;;;;4919089;29;20048;-87
2022/03/28 10:02:35;;;;;;;28.08;16.60;;;28.90;49.10;;;;;;5251635;23;20028;-89
2022/03/28 10:05:01;;;;;;;32.67;16.00;;;28.60;48.30;;;;;;4924582;29;20036;-89
2022/03/28 10:17:13;;;;;;;24.88;13.95;;;29.00;47.50;;;;;;4905521;29;20028;-90
2022/03/28 10:19:46;;;;;;;27.35;16.17;;;30.40;46.80;;;;;;4924073;29;20016;-91
2022/03/28 10:22:32;;;;;;;22.30;14.45;;;31.50;45.60;;;;;;4900111;29;20044;-91
2022/03/28 10:42:12;;;;;;;23.90;12.93;;;31.90;44.20;;;;;;5294444;23;20036;-87
2022/03/28 10:44:47;;;;;;;23.70;12.88;;;32.10;43.30;;;;;;4912851;29;20057;-87
2022/03/28 10:47:14;;;;;;;;;;;31.30;43.60;;;;;;4916225;29;20032;-86
2022/03/28 10:49:42;;;;;;;26.27;12.23;;;31.40;43.60;;;;;;4913024;29;19900;-86
2022/03/28 10:52:13;;;;;;;20.80;11.45;;;31.80;43.30;;;;;;4903073;29;20029;-87
2022/03/28 10:54:39;;;;;;;32.20;10.82;;;32.60;42.80;;;;;;4903828;29;20073;-86
2022/03/28 10:57:23;;;;;;;17.88;10.77;;;32.90;42.50;;;;;;4902782;29;20021;-88
2022/03/28 11:00:16;;;;;;;19.13;10.67;;;32.90;42.10;;;;;;4902338;29;20101;-89
2022/03/28 11:02:43;;;;;;;16.10;9.98;;;32.90;42.10;;;;;;4882230;29;20049;-88
2022/03/28 11:05:13;;;;;;;16.02;9.43;;;32.40;42.30;;;;;;4899661;29;20036;-88
2022/03/28 11:07:39;;;;;;;19.10;10.02;;;33.00;42.10;;;;;;4912237;29;20049;-89
2022/03/28 11:10:11;;;;;;;15.95;9.52;;;33.40;41.80;;;;;;4899512;29;20021;-89
2022/03/28 11:12:41;;;;;;;16.05;10.02;;;33.30;41.60;;;;;;4900246;29;20042;-90
2022/03/28 11:15:21;;;;;;;17.73;10.13;;;33.80;41.60;;;;;;4897820;29;20036;-90
2022/03/28 11:17:58;;;;;;;15.93;10.30;;;34.50;41.10;;;;;;4905678;29;20089;-89
2022/03/28 11:20:28;;;;;;;16.15;10.25;;;34.30;40.70;;;;;;4894742;29;20125;-89
2022/03/28 11:22:55;;;;;;;18.67;10.25;;;34.40;40.50;;;;;;4895295;29;20057;-88
2022/03/28 11:25:28;;;;;;;17.15;11.10;;;34.60;40.40;;;;;;4896079;29;20044;-87
2022/03/28 11:28:22;;;;;;;14.82;9.50;;;34.20;40.30;;;;;;4897001;29;20096;-88
2022/03/28 11:31:02;;;;;;;13.60;9.77;;;34.30;40.40;;;;;;4910836;29;20037;-90
2022/03/28 11:33:34;;;;;;;19.77;10.52;;;34.70;40.10;;;;;;4893988;29;20104;-88
2022/03/28 11:36:03;;;;;;;16.33;9.48;;;34.50;40.00;;;;;;4877676;29;20053;-88
2022/03/28 11:38:33;;;;;;;16.13;9.13;;;34.70;40.30;;;;;;4895957;29;20088;-88
2022/03/28 11:41:02;;;;;;;15.30;9.50;;;34.70;40.00;;;;;;4896880;29;20033;-86
2022/03/28 11:43:38;;;;;;;13.75;9.35;;;34.10;40.30;;;;;;4893166;29;20045;-89
2022/03/28 11:46:11;;;;;;;14.80;9.70;;;33.40;41.00;;;;;;4903167;29;20026;-87
2022/03/28 11:48:50;;;;;;;18.40;9.07;;;33.90;40.80;;;;;;4889019;29;20041;-89
2022/03/28 11:51:17;;;;;;;17.65;9.63;;;34.70;40.50;;;;;;4897257;29;20033;-86
2022/03/28 11:53:43;;;;;;;14.25;9.02;;;34.70;40.50;;;;;;4906868;29;20076;-86
2022/03/28 11:56:09;;;;;;;20.85;9.27;;;34.80;40.40;;;;;;4905331;29;20114;-89
2022/03/28 11:58:35;;;;;;;13.40;9.15;;;34.90;40.40;;;;;;4905823;29;20029;-88
2022/03/28 12:01:10;;;;;;;13.25;9.30;;;35.50;40.20;;;;;;4897008;29;20029;-88
2022/03/28 12:03:47;;;;;;;13.98;9.82;;;36.00;39.90;;;;;;4904494;29;20041;-87
2022/03/28 12:06:25;;;;;;;18.08;10.13;;;35.50;39.70;;;;;;4875441;29;20409;-89
2022/03/28 12:08:51;;;;;;;19.67;9.98;;;35.20;39.80;;;;;;4875830;29;20040;-86
2022/03/28 12:11:17;;;;;;;17.58;9.35;;;35.60;39.70;;;;;;4888693;29;20033;-87
2022/03/28 12:13:43;;;;;;;14.77;10.05;;;36.20;39.60;;;;;;4901041;29;20040;-86
2022/03/28 12:16:09;;;;;;;17.63;10.10;;;36.10;39.40;;;;;;4904115;29;20040;-87
2022/03/28 12:18:35;;;;;;;16.75;9.90;;;35.60;39.40;;;;;;4902319;29;20044;-86
2022/03/28 12:21:00;;;;;;;12.27;9.82;;;36.70;39.00;;;;;;4901275;29;20080;-85
2022/03/28 12:23:28;;;;;;;14.88;10.00;;;36.50;38.90;;;;;;4904615;29;20037;-86
2022/03/28 12:26:03;;;;;;;16.27;10.52;;;36.60;39.00;;;;;;4915571;29;20354;-85
2022/03/28 12:28:38;;;;;;;13.63;9.85;;;37.20;38.70;;;;;;4878087;29;20058;-87
2022/03/28 12:31:07;;;;;;;20.58;10.32;;;37.30;38.50;;;;;;4890232;29;20032;-85
2022/03/28 12:33:40;;;;;;;21.00;10.23;;;36.80;38.70;;;;;;4899262;29;20029;-85
2022/03/28 12:36:08;;;;;;;15.23;9.18;;;37.00;38.80;;;;;;4903906;29;20047;-89
2022/03/28 12:38:35;;;;;;;21.27;10.32;;;36.90;38.70;;;;;;4907035;29;20053;-86
2022/03/28 12:41:05;;;;;;;13.80;9.88;;;36.80;38.40;;;;;;4919259;29;20032;-87
2022/03/28 12:43:33;;;;;;;18.00;10.40;;;37.60;38.40;;;;;;4894549;29;20053;-86
2022/03/28 12:46:02;;;;;;;16.17;10.63;;;37.20;38.00;;;;;;4898223;29;20017;-85
2022/03/28 12:48:52;;;;;;;17.85;10.85;;;37.30;38.10;;;;;;4900850;29;20021;-86
2022/03/28 12:51:35;;;;;;;15.57;9.65;;;36.60;38.40;;;;;;4896777;29;20037;-87
2022/03/28 12:54:05;;;;;;;15.45;10.27;;;36.60;38.60;;;;;;4910925;29;20072;-87
2022/03/28 12:56:42;;;;;;;17.42;10.30;;;37.40;38.60;;;;;;4915450;29;20033;-88
2022/03/28 12:59:08;;;;;;;14.88;9.32;;;37.20;38.30;;;;;;4897082;29;20037;-88
2022/03/28 13:01:34;;;;;;;15.52;10.05;;;36.80;38.40;;;;;;4895620;29;20049;-86
2022/03/28 13:04:11;;;;;;;16.63;10.18;;;37.00;38.50;;;;;;4898563;29;20161;-87
2022/03/28 13:06:44;;;;;;;15.52;9.98;;;37.00;38.50;;;;;;4898754;29;20025;-84
2022/03/28 13:09:11;;;;;;;20.20;10.27;;;37.30;38.30;;;;;;4897069;29;20061;-89
2022/03/28 13:11:37;;;;;;;19.80;10.10;;;37.10;38.20;;;;;;4901263;29;20009;-84
2022/03/28 13:14:07;;;;;;;16.40;10.25;;;37.30;38.20;;;;;;4916897;29;20032;-85